Time;durP1;ratioP1;P1;durP2;ratioP2;P2;SDS_P1;SDS_P2;PMS_P1;PMS_P2;Temp;Humidity;BMP_temperature;BMP_pressure;BME280_temperature;BME280_humidity;BME280_pressure;Samples;Min_cycle;Max_cycle;Signal;HPM_P1;HPM_P2
2022/03/26 00:00:29;;;;;;;10.25;3.40;;;;;;;20.21;27.66;98460.75;5147679;27;20255;-70
2022/03/26 00:02:56;;;;;;;11.70;3.83;;;;;;;20.25;27.81;98449.38;5147814;28;20144;-68
2022/03/26 00:05:21;;;;;;;6.95;3.90;;;;;;;20.30;27.61;98446.06;5148064;27;20019;-68
2022/03/26 00:07:47;;;;;;;5.93;3.58;;;;;;;20.35;27.67;98443.59;5151446;27;20141;-69
2022/03/26 00:10:13;;;;;;;8.70;3.75;;;;;;;20.39;27.72;98425.16;5151180;27;20192;-69
2022/03/26 00:12:39;;;;;;;7.13;3.40;;;;;;;20.44;27.87;98419.97;5151617;27;20071;-67
2022/03/26 00:15:05;;;;;;;5.97;3.17;;;;;;;20.48;27.62;98413.13;5151726;27;20038;-69
2022/03/26 00:17:31;;;;;;;4.30;3.10;;;;;;;20.53;27.70;98399.06;5151610;27;20023;-68
2022/03/26 00:19:57;;;;;;;6.13;3.47;;;;;;;20.54;27.57;98396.16;5150921;27;20182;-68
2022/03/26 00:22:23;;;;;;;5.65;3.42;;;;;;;20.58;27.46;98389.34;5151211;27;20027;-68
2022/03/26 00:24:48;;;;;;;5.60;3.63;;;;;;;20.62;27.52;98392.41;5151122;27;20030;-69
2022/03/26 00:27:14;;;;;;;5.07;3.22;;;;;;;20.64;27.68;98378.75;5151054;27;20090;-69
2022/03/26 00:29:40;;;;;;;5.78;3.75;;;;;;;20.68;27.28;98371.91;5151390;27;20011;-68
2022/03/26 00:32:06;;;;;;;4.30;3.40;;;;;;;20.70;27.38;98362.59;5150466;27;20027;-67
2022/03/26 00:34:32;;;;;;;5.88;3.63;;;;;;;20.75;27.47;98351.22;5147953;27;20076;-68
2022/03/26 00:36:58;;;;;;;5.03;3.78;;;;;;;20.77;27.19;98345.63;5150931;27;20171;-69
2022/03/26 00:39:24;;;;;;;4.90;3.42;;;;;;;20.80;27.29;98343.34;5150155;27;20071;-69
2022/03/26 00:41:50;;;;;;;4.55;3.35;;;;;;;20.81;27.39;98330.69;5149985;27;20019;-69
2022/03/26 00:44:16;;;;;;;7.03;3.60;;;;;;;20.84;27.35;98327.59;5150941;27;20038;-67
2022/03/26 00:46:45;;;;;;;7.80;4.38;;;;;;;20.85;27.42;98326.53;5150865;27;20015;-67
2022/03/26 00:49:11;;;;;;;6.10;4.32;;;;;;;20.87;27.57;98313.72;5150413;27;20023;-69
2022/03/26 00:51:37;;;;;;;5.90;3.67;;;;;;;20.89;27.14;98312.44;5148597;27;20098;-67
2022/03/26 00:54:02;;;;;;;5.65;3.78;;;;;;;20.94;26.93;98306.44;5150027;27;20023;-67
2022/03/26 00:56:28;;;;;;;4.35;3.25;;;;;;;20.98;26.89;98293.38;5150666;27;20144;-67
2022/03/26 00:58:53;;;;;;;6.43;4.22;;;;;;;21.03;26.71;98280.06;5150712;27;20177;-66
2022/03/26 01:01:19;;;;;;;5.75;3.42;;;;;;;21.05;26.63;98272.63;5150611;27;20019;-67
2022/03/26 01:03:44;;;;;;;5.13;3.63;;;;;;;21.08;26.83;98277.56;5145192;27;20100;-66
2022/03/26 01:06:10;;;;;;;6.15;3.83;;;;;;;21.04;26.60;98261.03;5150362;27;20023;-67
2022/03/26 01:08:35;;;;;;;4.78;3.47;;;;;;;21.14;26.61;98265.94;5150505;27;20063;-67
2022/03/26 01:11:01;;;;;;;6.40;3.65;;;;;;;21.16;26.64;98269.22;5150120;27;20228;-67
2022/03/26 01:13:27;;;;;;;6.53;3.40;;;;;;;21.17;26.98;98252.03;5149579;27;20075;-70
2022/03/26 01:15:53;;;;;;;6.25;3.40;;;;;;;21.18;26.75;98245.59;5150361;27;20011;-68
2022/03/26 01:18:18;;;;;;;6.43;3.28;;;;;;;21.19;26.73;98228.41;5148191;27;20073;-67
2022/03/26 01:20:44;;;;;;;6.60;3.88;;;;;;;21.17;26.74;98238.59;5154064;27;20029;-70
2022/03/26 01:23:10;;;;;;;5.60;4.28;;;;;;;21.19;26.93;98230.28;5149414;27;20022;-68
2022/03/26 01:25:36;;;;;;;6.00;4.10;;;;;;;21.13;26.74;98218.56;5145703;27;20033;-69
2022/03/26 01:28:02;;;;;;;6.70;3.83;;;;;;;21.10;26.94;98215.50;5148382;27;20041;-70
2022/03/26 01:30:28;;;;;;;6.45;3.42;;;;;;;20.79;27.24;98206.47;5150109;27;20240;-69
2022/03/26 01:32:55;;;;;;;11.48;3.72;;;;;;;20.47;27.67;98201.09;5150037;27;20026;-70
2022/03/26 01:35:21;;;;;;;5.25;2.95;;;;;;;20.20;27.93;98187.88;5150006;27;20027;-70
2022/03/26 01:37:46;;;;;;;5.10;3.88;;;;;;;19.96;28.26;98185.72;5149537;27;20105;-71
2022/03/26 01:40:13;;;;;;;7.20;4.40;;;;;;;19.77;28.51;98170.50;5149857;27;20046;-70
2022/03/26 01:42:38;;;;;;;6.15;3.60;;;;;;;19.60;28.50;98164.81;5145591;27;20033;-69
2022/03/26 01:45:04;;;;;;;5.70;3.75;;;;;;;19.45;28.58;98162.41;5149728;27;20023;-69
2022/03/26 01:47:30;;;;;;;6.25;4.40;;;;;;;19.30;28.49;98157.31;5149447;27;20147;-69
2022/03/26 01:49:55;;;;;;;6.35;3.72;;;;;;;19.19;28.66;98151.53;5149210;27;20022;-70
2022/03/26 01:52:21;;;;;;;7.43;4.00;;;;;;;19.12;28.54;98140.03;5149484;27;20031;-69
2022/03/26 01:54:47;;;;;;;7.88;3.95;;;;;;;19.04;28.58;98130.34;5149791;27;20026;-69
2022/03/26 01:57:12;;;;;;;7.05;3.92;;;;;;;18.99;28.61;98129.34;5148559;27;20027;-70
2022/03/26 01:59:41;;;;;;;4.93;3.70;;;;;;;18.94;28.56;98113.91;5149595;27;20015;-69
2022/03/26 02:02:07;;;;;;;10.32;4.40;;;;;;;18.87;28.74;98113.88;5148391;27;20035;-69
2022/03/26 02:04:35;;;;;;;7.65;4.28;;;;;;;18.82;28.67;98105.66;5148989;27;20023;-69
2022/03/26 02:07:03;;;;;;;7.10;4.22;;;;;;;18.73;28.69;98091.66;5149212;27;20050;-69
2022/03/26 02:09:35;;;;;;;5.38;3.97;;;;;;;18.71;28.75;98091.03;5149388;27;20074;-69
2022/03/26 02:12:02;;;;;;;6.07;4.80;;;;;;;18.69;28.70;98073.53;5148940;27;20037;-69
2022/03/26 02:14:27;;;;;;;5.20;4.32;;;;;;;18.70;28.64;98084.03;5149247;27;20019;-69
2022/03/26 02:16:53;;;;;;;6.82;4.00;;;;;;;18.67;28.56;98072.91;5149146;27;20030;-68
2022/03/26 02:19:20;;;;;;;6.03;3.88;;;;;;;18.65;28.66;98065.09;5148954;27;20051;-69
2022/03/26 02:21:49;;;;;;;7.10;4.55;;;;;;;18.61;28.62;98067.34;5148904;27;20026;-69
2022/03/26 02:24:15;;;;;;;4.57;3.65;;;;;;;18.60;28.60;98052.28;5149334;27;20015;-69
2022/03/26 02:26:41;;;;;;;7.68;4.60;;;;;;;18.60;28.47;98063.00;5149035;27;20019;-69
2022/03/26 02:29:09;;;;;;;6.13;3.90;;;;;;;18.60;28.83;98068.38;5148599;27;20015;-70
2022/03/26 02:31:35;;;;;;;6.30;4.13;;;;;;;18.52;28.49;98052.53;5149009;27;20025;-70
2022/03/26 02:34:02;;;;;;;8.07;4.45;;;;;;;18.51;28.54;98048.22;5148909;27;20039;-70
2022/03/26 02:36:27;;;;;;;6.03;4.38;;;;;;;18.45;28.54;98046.38;5148927;27;20152;-70
2022/03/26 02:38:53;;;;;;;6.65;4.75;;;;;;;18.41;28.61;98051.31;5148885;27;20090;-70
2022/03/26 02:41:18;;;;;;;7.30;4.20;;;;;;;18.38;28.60;98029.50;5146385;27;20031;-70
2022/03/26 02:43:44;;;;;;;10.30;4.88;;;;;;;18.33;28.74;98035.47;5128304;28;20023;-68
2022/03/26 02:46:09;;;;;;;5.47;4.15;;;;;;;18.33;28.77;98026.59;5144541;27;20107;-71
2022/03/26 02:48:35;;;;;;;6.60;4.28;;;;;;;18.29;28.70;98016.34;5148866;27;20445;-70
2022/03/26 02:51:01;;;;;;;6.50;4.13;;;;;;;18.26;28.66;98010.56;5148709;27;20075;-69
2022/03/26 02:53:27;;;;;;;4.93;3.78;;;;;;;18.20;28.80;98004.19;5148749;27;20034;-69
2022/03/26 02:55:53;;;;;;;6.05;3.95;;;;;;;18.16;28.76;98000.25;5148722;27;20101;-70
2022/03/26 02:58:18;;;;;;;8.13;4.63;;;;;;;18.14;28.66;97987.09;5148611;27;20027;-70
2022/03/26 03:00:44;;;;;;;7.75;4.47;;;;;;;18.14;28.75;97972.91;5148472;27;20038;-70
2022/03/26 03:03:10;;;;;;;6.95;4.68;;;;;;;18.12;28.76;97966.94;5148509;28;20042;-70
2022/03/26 03:05:36;;;;;;;6.85;4.10;;;;;;;18.13;28.82;97963.22;5148630;28;20132;-71
2022/03/26 03:08:02;;;;;;;6.80;5.00;;;;;;;18.09;28.74;97957.44;5148566;28;20101;-70
2022/03/26 03:10:28;;;;;;;5.97;4.57;;;;;;;18.03;29.01;97931.53;5147636;28;20164;-70
2022/03/26 03:12:54;;;;;;;6.13;4.65;;;;;;;18.03;29.04;97933.38;5148249;28;20244;-70
2022/03/26 03:15:20;;;;;;;6.25;4.03;;;;;;;18.04;28.85;97961.78;5148561;28;20019;-70
2022/03/26 03:17:48;;;;;;;7.80;4.40;;;;;;;18.06;29.11;97957.03;5148193;28;20026;-70
2022/03/26 03:20:15;;;;;;;15.52;5.43;;;;;;;18.07;28.87;97927.41;5148341;28;20293;-70
2022/03/26 03:22:42;;;;;;;7.05;4.72;;;;;;;18.07;29.01;97914.03;5148220;28;20007;-70
2022/03/26 03:25:09;;;;;;;7.50;4.93;;;;;;;18.02;29.21;97894.25;5148496;28;20045;-70
2022/03/26 03:27:35;;;;;;;9.75;5.45;;;;;;;17.95;29.23;97900.44;5147314;28;20019;-70
2022/03/26 03:30:02;;;;;;;9.75;5.05;;;;;;;17.91;29.35;97887.69;5148322;28;20015;-72
2022/03/26 03:32:27;;;;;;;6.75;4.25;;;;;;;17.88;29.62;97856.00;5148340;28;20011;-71
2022/03/26 03:34:53;;;;;;;7.22;5.20;;;;;;;17.87;29.61;97883.78;5148262;28;20058;-71
2022/03/26 03:37:19;;;;;;;6.07;4.80;;;;;;;17.87;29.95;97873.06;5147681;28;20023;-71
2022/03/26 03:39:45;;;;;;;7.85;4.72;;;;;;;17.88;30.07;97872.03;5148219;27;20021;-71
2022/03/26 03:42:10;;;;;;;6.10;4.85;;;;;;;17.84;29.90;97855.59;5150820;27;20015;-71
2022/03/26 03:44:36;;;;;;;10.25;5.05;;;;;;;17.85;29.89;97851.88;5134175;27;20035;-71
2022/03/26 03:47:02;;;;;;;7.82;5.00;;;;;;;17.83;29.73;97856.63;5151528;27;20023;-71
2022/03/26 03:49:31;;;;;;;6.07;4.13;;;;;;;17.81;29.88;97854.13;5152120;27;20026;-70
2022/03/26 03:51:57;;;;;;;7.25;4.70;;;;;;;17.79;29.79;97852.72;5152085;27;20212;-71
2022/03/26 03:54:23;;;;;;;10.75;4.95;;;;;;;17.77;30.09;97847.59;5151942;27;20069;-71
2022/03/26 03:56:48;;;;;;;7.03;4.72;;;;;;;17.76;29.81;97845.94;5151506;27;20166;-71
2022/03/26 03:59:14;;;;;;;9.05;5.82;;;;;;;17.74;29.79;97849.84;5151968;27;20023;-71
2022/03/26 04:01:39;;;;;;;8.23;5.05;;;;;;;17.70;29.92;97841.41;5151789;27;20136;-71
2022/03/26 04:04:05;;;;;;;7.72;4.82;;;;;;;17.68;29.84;97836.28;5151905;27;20030;-71
2022/03/26 04:06:30;;;;;;;6.93;5.13;;;;;;;17.65;30.03;97828.66;5151475;27;20027;-71
2022/03/26 04:08:56;;;;;;;8.27;4.63;;;;;;;17.62;30.00;97817.56;5151180;27;20103;-71
2022/03/26 04:11:21;;;;;;;5.88;4.32;;;;;;;17.60;30.05;97822.31;5151422;27;20227;-71
2022/03/26 04:13:49;;;;;;;5.93;4.72;;;;;;;17.59;30.00;97812.63;5150566;27;20027;-71
2022/03/26 04:16:14;;;;;;;7.60;4.97;;;;;;;17.61;29.62;97811.38;5151655;27;20111;-71
2022/03/26 04:18:39;;;;;;;11.35;4.60;;;;;;;17.62;29.96;97804.19;5151284;27;20026;-70
2022/03/26 04:21:05;;;;;;;7.72;6.05;;;;;;;17.60;29.67;97793.69;5151350;27;20263;-70
2022/03/26 04:23:30;;;;;;;8.95;4.72;;;;;;;17.59;29.86;97791.25;5151472;27;20027;-70
2022/03/26 04:25:56;;;;;;;7.57;5.25;;;;;;;17.58;29.84;97774.34;5151415;27;20071;-70
2022/03/26 04:28:21;;;;;;;8.18;5.13;;;;;;;17.59;29.99;97770.66;5133781;27;20027;-70
2022/03/26 04:30:47;;;;;;;8.35;4.90;;;;;;;17.59;30.01;97781.34;5132117;27;20018;-70
2022/03/26 04:33:12;;;;;;;7.07;4.72;;;;;;;17.57;30.08;97761.22;5150786;27;20018;-70
2022/03/26 04:35:38;;;;;;;6.72;4.88;;;;;;;17.53;30.06;97750.13;5150601;27;20252;-70
2022/03/26 04:38:04;;;;;;;6.28;4.63;;;;;;;17.48;29.83;97742.72;5151173;27;20019;-71
2022/03/26 04:40:30;;;;;;;7.75;4.63;;;;;;;17.48;30.25;97736.53;5151470;27;20026;-71
2022/03/26 04:42:55;;;;;;;6.72;5.60;;;;;;;17.46;30.02;97726.06;5150735;27;20038;-70
2022/03/26 04:45:23;;;;;;;7.13;4.68;;;;;;;17.45;29.74;97711.06;5131595;27;20019;-70
2022/03/26 04:47:49;;;;;;;8.60;5.30;;;;;;;17.47;30.00;97702.81;5150929;27;20075;-71
2022/03/26 04:50:14;;;;;;;6.68;4.63;;;;;;;17.46;29.64;97693.16;5150748;27;20015;-71
2022/03/26 04:52:40;;;;;;;11.80;5.38;;;;;;;17.47;29.75;97692.97;5150662;27;20014;-70
2022/03/26 04:55:10;;;;;;;8.35;5.05;;;;;;;17.47;29.72;97676.09;5150990;27;20034;-70
2022/03/26 04:57:44;;;;;;;9.10;5.13;;;;;;;17.46;29.95;97677.13;5150273;27;20030;-70
2022/03/26 05:00:13;;;;;;;8.30;5.00;;;;;;;17.48;29.98;97677.72;5150807;27;20181;-70
2022/03/26 05:02:39;;;;;;;9.15;5.25;;;;;;;17.46;29.71;97677.13;5150618;27;20047;-71
2022/03/26 05:05:10;;;;;;;7.00;4.65;;;;;;;17.43;30.07;97656.97;5150983;27;20027;-71
2022/03/26 05:07:48;;;;;;;8.73;5.30;;;;;;;17.43;29.87;97659.66;5149942;27;20017;-71
2022/03/26 05:10:18;;;;;;;9.82;5.13;;;;;;;17.41;30.08;97650.22;5150645;27;20015;-70
2022/03/26 05:12:44;;;;;;;9.48;5.20;;;;;;;17.41;30.24;97639.50;5149869;27;20022;-70
2022/03/26 05:15:11;;;;;;;8.70;5.30;;;;;;;17.40;30.04;97633.34;5150564;27;20026;-70
2022/03/26 05:17:37;;;;;;;10.27;4.90;;;;;;;17.40;30.25;97638.69;5150058;27;20091;-71
2022/03/26 05:20:03;;;;;;;11.75;5.03;;;;;;;17.42;30.05;97630.47;5150168;27;20217;-70
2022/03/26 05:22:29;;;;;;;8.93;5.20;;;;;;;17.44;30.07;97623.03;5150000;27;20015;-70
2022/03/26 05:24:54;;;;;;;7.93;5.78;;;;;;;17.43;30.24;97616.03;5149577;27;20027;-71
2022/03/26 05:27:20;;;;;;;7.18;5.15;;;;;;;17.43;29.99;97614.19;5149961;27;20022;-70
2022/03/26 05:29:46;;;;;;;8.95;5.30;;;;;;;17.44;30.32;97597.13;5150256;27;20026;-70
2022/03/26 05:32:12;;;;;;;6.65;5.13;;;;;;;17.47;30.24;97612.75;5150082;27;20015;-70
2022/03/26 05:34:39;;;;;;;6.10;4.90;;;;;;;17.46;30.19;97610.28;5150084;27;20018;-70
2022/03/26 05:37:05;;;;;;;10.73;4.63;;;;;;;17.50;30.21;97622.19;5149154;27;20011;-70
2022/03/26 05:39:31;;;;;;;11.43;5.50;;;;;;;17.55;30.28;97611.69;5149579;27;20038;-70
2022/03/26 05:41:57;;;;;;;8.60;5.10;;;;;;;17.59;29.80;97599.50;5147312;27;20220;-70
2022/03/26 05:44:22;;;;;;;11.80;6.05;;;;;;;17.64;29.94;97591.69;5149722;27;20023;-70
2022/03/26 05:46:48;;;;;;;7.93;5.68;;;;;;;17.64;30.02;97585.53;5148924;27;20267;-70
2022/03/26 05:49:14;;;;;;;7.32;4.93;;;;;;;17.64;29.89;97569.47;5149196;27;20273;-69
2022/03/26 05:51:39;;;;;;;7.07;5.28;;;;;;;17.68;30.06;97571.50;5149696;27;20015;-69
2022/03/26 05:54:04;;;;;;;7.57;5.10;;;;;;;17.69;30.02;97565.13;5149730;27;20239;-69
2022/03/26 05:56:36;;;;;;;8.77;6.25;;;;;;;17.65;29.95;97550.53;5149449;27;20023;-70
2022/03/26 05:59:01;;;;;;;;;;;;;;;17.59;30.10;97542.53;5149964;27;20023;-70
2022/03/26 06:01:27;;;;;;;9.30;4.78;;;;;;;17.60;29.98;97538.84;5149343;27;19895;-70
2022/03/26 06:03:52;;;;;;;7.47;4.82;;;;;;;17.62;29.77;97518.06;5148864;27;20019;-71
2022/03/26 06:06:18;;;;;;;9.68;5.20;;;;;;;17.58;30.01;97504.28;5149461;27;20274;-71
2022/03/26 06:08:43;;;;;;;10.00;5.38;;;;;;;17.62;29.79;97502.81;5149522;27;20027;-71
2022/03/26 06:11:09;;;;;;;5.25;3.97;;;;;;;17.64;30.21;97491.91;5149228;27;20083;-70
2022/03/26 06:13:34;;;;;;;11.27;5.82;;;;;;;17.65;29.84;97481.00;5131331;27;20025;-70
2022/03/26 06:16:00;;;;;;;8.10;4.80;;;;;;;17.69;29.95;97478.69;5149228;27;20051;-70
2022/03/26 06:18:25;;;;;;;8.23;5.13;;;;;;;17.67;30.09;97473.56;5149301;27;20220;-71
2022/03/26 06:20:51;;;;;;;11.70;5.53;;;;;;;17.67;30.02;97475.41;5149080;27;20019;-71
2022/03/26 06:23:16;;;;;;;11.13;5.90;;;;;;;17.64;29.92;97468.66;5148517;27;20031;-70
2022/03/26 06:25:42;;;;;;;11.77;5.60;;;;;;;17.62;30.22;97457.34;5148882;27;20081;-71
2022/03/26 06:28:07;;;;;;;8.48;4.95;;;;;;;17.61;29.98;97449.56;5148374;27;20022;-70
2022/03/26 06:30:33;;;;;;;7.20;5.22;;;;;;;17.58;30.28;97440.09;5149088;27;20019;-70
2022/03/26 06:32:59;;;;;;;7.78;5.13;;;;;;;17.60;30.36;97432.69;5148993;27;20086;-70
2022/03/26 06:35:24;;;;;;;10.43;5.35;;;;;;;17.60;30.13;97430.00;5148943;27;20034;-70
2022/03/26 06:37:50;;;;;;;9.85;5.63;;;;;;;17.59;30.30;97422.22;5148155;27;20074;-70
2022/03/26 06:40:15;;;;;;;8.77;5.30;;;;;;;17.61;30.27;97418.28;5148743;27;20039;-70
2022/03/26 06:42:41;;;;;;;8.38;5.32;;;;;;;17.59;30.30;97411.53;5148527;27;20122;-70
2022/03/26 06:45:07;;;;;;;8.50;5.32;;;;;;;17.57;30.17;97400.22;5148741;27;20034;-70
2022/03/26 06:47:32;;;;;;;9.02;5.32;;;;;;;17.60;30.37;97397.91;5148045;27;20030;-69
2022/03/26 06:49:58;;;;;;;8.93;5.43;;;;;;;17.59;30.30;97387.44;5148711;27;20046;-69
2022/03/26 06:52:24;;;;;;;12.80;5.45;;;;;;;17.58;30.20;97370.56;5147723;27;20018;-70
2022/03/26 06:54:50;;;;;;;12.75;5.28;;;;;;;17.62;30.25;97370.97;5148649;27;20057;-70
2022/03/26 06:57:16;;;;;;;8.98;5.25;;;;;;;17.66;30.21;97361.44;5148301;27;20019;-70
2022/03/26 06:59:41;;;;;;;8.43;5.13;;;;;;;17.67;30.18;97355.06;5148502;27;20026;-69
2022/03/26 07:02:07;;;;;;;9.27;5.72;;;;;;;17.65;30.31;97343.78;5148351;27;20046;-70
2022/03/26 07:04:32;;;;;;;7.55;5.53;;;;;;;17.66;30.22;97332.03;5148481;28;20060;-70
2022/03/26 07:06:58;;;;;;;7.93;5.68;;;;;;;17.65;30.21;97323.22;5148366;28;20031;-70
2022/03/26 07:09:24;;;;;;;12.80;7.00;;;;;;;17.66;30.14;97322.16;5147716;28;20063;-70
2022/03/26 07:11:50;;;;;;;9.50;5.47;;;;;;;17.65;30.37;97299.16;5146824;28;20082;-70
2022/03/26 07:14:16;;;;;;;10.32;5.55;;;;;;;17.67;29.96;97282.88;5148780;28;20011;-71
2022/03/26 07:16:43;;;;;;;8.73;5.68;;;;;;;17.68;30.07;97285.34;5152250;27;20213;-70
2022/03/26 07:19:09;;;;;;;12.80;4.93;;;;;;;17.69;29.98;97286.97;5152638;27;20049;-70
2022/03/26 07:21:36;;;;;;;7.32;4.95;;;;;;;17.73;29.94;97283.81;5151671;27;20019;-70
2022/03/26 07:24:02;;;;;;;6.95;4.63;;;;;;;17.77;29.90;97275.16;5152839;27;20015;-70
2022/03/26 07:26:28;;;;;;;9.90;5.50;;;;;;;17.78;29.96;97265.25;5152532;27;20025;-70
2022/03/26 07:28:55;;;;;;;10.73;5.45;;;;;;;17.79;29.97;97256.19;5152470;27;20205;-70
2022/03/26 07:31:21;;;;;;;9.57;5.38;;;;;;;17.80;29.89;97252.50;5151909;27;20030;-71
2022/03/26 07:33:46;;;;;;;8.75;5.10;;;;;;;17.80;30.05;97252.50;5152276;27;20019;-71
2022/03/26 07:36:12;;;;;;;8.07;5.15;;;;;;;17.79;30.12;97237.47;5152276;27;20015;-71
2022/03/26 07:38:37;;;;;;;9.27;5.35;;;;;;;17.77;30.00;97244.91;5152565;27;20015;-70
2022/03/26 07:41:03;;;;;;;7.85;5.32;;;;;;;17.75;30.03;97229.09;5152189;27;20019;-70
2022/03/26 07:43:29;;;;;;;8.27;5.43;;;;;;;17.73;29.94;97227.66;5152014;27;20028;-71
2022/03/26 07:45:54;;;;;;;8.30;5.15;;;;;;;17.73;30.12;97230.34;5151971;27;20026;-71
2022/03/26 07:48:20;;;;;;;10.75;5.00;;;;;;;17.70;30.21;97226.25;5151072;27;20022;-70
2022/03/26 07:50:46;;;;;;;9.73;5.53;;;;;;;17.67;30.14;97214.16;5152063;27;20015;-70
2022/03/26 07:53:12;;;;;;;10.82;5.25;;;;;;;17.72;30.05;97207.34;5151794;27;20086;-71
2022/03/26 07:55:38;;;;;;;7.18;4.53;;;;;;;17.76;30.13;97213.84;5151945;27;20067;-69
2022/03/26 07:58:03;;;;;;;8.32;5.35;;;;;;;17.78;30.11;97211.78;5151872;27;20042;-70
2022/03/26 08:00:29;;;;;;;9.27;4.93;;;;;;;17.76;30.14;97195.97;5151944;27;20220;-71
2022/03/26 08:02:55;;;;;;;12.40;5.00;;;;;;;17.72;30.24;97164.53;5150842;27;20043;-71
2022/03/26 08:05:21;;;;;;;19.40;5.53;;;;;;;17.73;30.41;97171.50;5151949;27;20075;-71
2022/03/26 08:07:46;;;;;;;8.90;5.10;;;;;;;17.67;30.50;97166.03;5151827;27;20011;-71
2022/03/26 08:10:12;;;;;;;9.73;5.60;;;;;;;17.64;30.64;97158.44;5151666;27;20022;-71
2022/03/26 08:12:38;;;;;;;12.43;6.20;;;;;;;17.64;30.77;97152.31;5150485;27;20135;-71
2022/03/26 08:15:04;;;;;;;8.75;5.30;;;;;;;17.64;30.89;97145.09;5151512;27;20127;-72
2022/03/26 08:17:30;;;;;;;11.35;5.70;;;;;;;17.69;30.92;97136.38;5150455;27;20227;-71
2022/03/26 08:19:56;;;;;;;7.15;4.90;;;;;;;17.71;30.95;97118.25;5151422;27;20039;-70
2022/03/26 08:22:21;;;;;;;7.32;4.97;;;;;;;17.78;31.00;97126.19;5151576;27;20011;-70
2022/03/26 08:24:47;;;;;;;10.70;5.47;;;;;;;17.77;31.27;97108.50;5151518;27;20018;-70
2022/03/26 08:27:12;;;;;;;11.48;5.93;;;;;;;17.79;31.24;97103.75;5149538;27;20083;-70
2022/03/26 08:29:38;;;;;;;7.80;5.07;;;;;;;17.77;31.12;97092.44;5151464;27;20018;-70
2022/03/26 08:32:05;;;;;;;10.02;5.32;;;;;;;17.72;31.30;97081.66;5150543;27;20023;-70
2022/03/26 08:34:31;;;;;;;12.82;5.30;;;;;;;17.72;31.50;97078.97;5151067;27;20011;-69
2022/03/26 08:36:57;;;;;;;11.15;5.45;;;;;;;17.73;31.28;97068.03;5151121;27;20022;-70
2022/03/26 08:39:22;;;;;;;6.82;5.47;;;;;;;17.72;31.66;97057.56;5151022;27;20026;-72
2022/03/26 08:41:48;;;;;;;8.77;5.90;;;;;;;17.67;31.43;97051.03;5150385;27;20023;-69
2022/03/26 08:44:14;;;;;;;11.30;5.57;;;;;;;17.69;31.64;97042.78;5150367;27;20022;-69
2022/03/26 08:46:39;;;;;;;10.68;5.63;;;;;;;17.71;31.50;97046.03;5150967;27;20041;-69
2022/03/26 08:49:05;;;;;;;8.55;5.47;;;;;;;17.72;31.67;97041.53;5151003;27;20026;-70
2022/03/26 08:51:30;;;;;;;7.80;5.53;;;;;;;17.71;31.54;97058.63;5150749;27;20212;-69
2022/03/26 08:53:56;;;;;;;8.50;5.70;;;;;;;17.72;31.59;97030.84;5150787;27;20019;-70
2022/03/26 08:56:22;;;;;;;7.28;5.57;;;;;;;17.77;31.45;97053.16;5150897;27;20022;-70
2022/03/26 08:58:47;;;;;;;6.80;5.15;;;;;;;17.77;31.54;97047.81;5150841;27;20064;-70
2022/03/26 09:01:13;;;;;;;8.30;5.72;;;;;;;17.75;31.67;97047.22;5150342;27;20002;-70
2022/03/26 09:03:40;;;;;;;10.02;5.20;;;;;;;17.82;31.79;97055.16;5149703;27;20260;-70
2022/03/26 09:06:07;;;;;;;7.07;5.30;;;;;;;17.99;31.58;97048.13;5149265;27;20031;-69
2022/03/26 09:08:36;;;;;;;7.80;4.93;;;;;;;18.12;31.64;97041.72;5145968;27;20144;-70
2022/03/26 09:11:04;;;;;;;6.25;4.53;;;;;;;18.21;31.37;97034.19;5150598;27;20082;-70
2022/03/26 09:13:30;;;;;;;6.97;4.80;;;;;;;18.35;31.48;97047.34;5150384;27;20042;-71
2022/03/26 09:15:56;;;;;;;12.85;5.00;;;;;;;18.52;31.31;97045.59;5150430;27;20071;-70
2022/03/26 09:18:22;;;;;;;6.68;4.70;;;;;;;18.58;31.15;97039.31;5150164;27;20098;-71
2022/03/26 09:20:48;;;;;;;8.30;4.32;;;;;;;18.64;31.19;97036.72;5150209;27;20007;-70
2022/03/26 09:23:14;;;;;;;8.00;5.43;;;;;;;18.70;31.20;97031.25;5150416;27;20212;-69
2022/03/26 09:25:42;;;;;;;12.30;5.40;;;;;;;18.75;31.00;97028.69;5150262;27;20150;-69
2022/03/26 09:28:07;;;;;;;7.40;5.05;;;;;;;18.83;31.03;97030.19;5149548;27;20295;-68
2022/03/26 09:30:33;;;;;;;7.60;4.45;;;;;;;18.87;30.69;97019.81;5150068;27;20064;-68
2022/03/26 09:32:59;;;;;;;6.43;4.43;;;;;;;18.94;31.17;97025.91;5150094;27;20065;-69
2022/03/26 09:35:25;;;;;;;9.10;5.85;;;;;;;19.02;30.90;97014.78;5150051;27;20019;-69
2022/03/26 09:37:51;;;;;;;6.43;4.85;;;;;;;19.12;30.86;97008.81;5149209;27;20322;-69
2022/03/26 09:40:19;;;;;;;8.18;4.95;;;;;;;19.18;30.67;97015.09;5149149;27;20075;-68
2022/03/26 09:42:45;;;;;;;6.47;4.00;;;;;;;19.16;30.80;96999.25;5147150;27;20025;-69
2022/03/26 09:45:10;;;;;;;8.35;5.38;;;;;;;19.17;30.81;97008.94;5149857;27;20230;-70
2022/03/26 09:47:37;;;;;;;6.82;4.97;;;;;;;19.16;30.93;97018.03;5149864;27;20011;-69
2022/03/26 09:50:05;;;;;;;6.90;5.05;;;;;;;19.10;30.94;97010.13;5149841;27;20018;-71
2022/03/26 09:52:31;;;;;;;6.88;4.60;;;;;;;19.18;30.74;97017.78;5149064;27;20164;-69
2022/03/26 09:54:57;;;;;;;8.65;5.25;;;;;;;19.14;30.88;97001.38;5149627;27;20034;-68
2022/03/26 09:57:23;;;;;;;10.13;5.70;;;;;;;19.02;30.96;97003.28;5148894;27;20011;-68
2022/03/26 09:59:48;;;;;;;10.57;5.88;;;;;;;18.84;31.19;96990.81;5149228;27;20035;-69
2022/03/26 10:02:14;;;;;;;8.13;5.50;;;;;;;18.69;31.43;96996.69;5148926;27;20038;-71
2022/03/26 10:04:43;;;;;;;9.75;5.60;;;;;;;18.58;31.62;97003.66;5149349;27;20042;-70
2022/03/26 10:07:10;;;;;;;10.85;6.00;;;;;;;18.49;31.84;96997.84;5149453;27;20033;-72
2022/03/26 10:09:36;;;;;;;10.32;5.55;;;;;;;18.41;31.79;96980.28;5149445;27;20158;-71
2022/03/26 10:12:20;;;;;;;10.20;5.60;;;;;;;18.43;31.97;96988.09;5148290;27;20251;-71
2022/03/26 10:14:47;;;;;;;8.85;6.43;;;;;;;18.38;31.97;96985.31;5149366;27;20299;-71
2022/03/26 10:17:24;;;;;;;8.82;5.13;;;;;;;18.34;32.36;96976.09;5149288;27;20026;-71
2022/03/26 10:19:51;;;;;;;9.45;5.68;;;;;;;18.32;32.31;96991.56;5149045;27;20033;-70
2022/03/26 10:22:27;;;;;;;8.57;5.40;;;;;;;18.33;32.15;96986.00;5148543;27;20034;-71
2022/03/26 10:24:54;;;;;;;8.15;6.18;;;;;;;18.35;32.15;96980.41;5149128;27;20042;-71
2022/03/26 10:27:19;;;;;;;8.45;5.65;;;;;;;18.40;32.22;96975.97;5148101;27;20078;-70
2022/03/26 10:29:56;;;;;;;9.82;5.80;;;;;;;18.45;32.14;96969.94;5148172;27;20034;-72
2022/03/26 10:32:40;;;;;;;11.80;6.10;;;;;;;18.48;31.94;96966.78;5149256;27;20014;-71
2022/03/26 10:35:09;;;;;;;9.80;5.65;;;;;;;18.49;32.02;96955.03;5148815;27;20027;-72
2022/03/26 10:37:42;;;;;;;9.25;5.05;;;;;;;18.45;31.96;96933.25;5148851;27;20228;-71
2022/03/26 10:40:22;;;;;;;9.48;6.63;;;;;;;18.43;32.17;96930.00;5148850;27;20021;-71
2022/03/26 10:42:55;;;;;;;9.27;5.25;;;;;;;18.38;32.13;96926.41;5148479;27;20026;-72
2022/03/26 10:45:21;;;;;;;8.68;5.85;;;;;;;18.34;32.05;96906.50;5148535;27;20027;-72
2022/03/26 10:47:53;;;;;;;8.32;5.95;;;;;;;18.37;32.17;96920.25;5148699;27;20049;-71
2022/03/26 10:50:19;;;;;;;6.72;4.88;;;;;;;18.38;32.29;96916.50;5148495;27;20125;-70
2022/03/26 10:52:45;;;;;;;9.98;5.40;;;;;;;18.51;32.08;96920.00;5148602;27;20019;-71
2022/03/26 10:55:15;;;;;;;7.45;4.85;;;;;;;18.57;31.89;96911.81;5148628;27;20034;-71
2022/03/26 10:57:44;;;;;;;7.40;5.40;;;;;;;18.59;31.86;96888.31;5148634;27;20016;-72
2022/03/26 11:00:10;;;;;;;7.15;5.55;;;;;;;18.60;31.75;96903.28;5148626;27;20020;-69
2022/03/26 11:02:36;;;;;;;10.13;5.97;;;;;;;18.60;31.97;96894.47;5148421;27;20027;-71
2022/03/26 11:05:01;;;;;;;9.63;6.10;;;;;;;18.64;31.93;96903.66;5148673;28;20030;-71
2022/03/26 11:07:28;;;;;;;6.60;5.13;;;;;;;18.69;31.84;96878.81;5148643;28;20023;-71
2022/03/26 11:09:56;;;;;;;6.85;5.10;;;;;;;18.73;31.80;96875.44;5147920;28;20086;-70
2022/03/26 11:12:22;;;;;;;8.30;5.55;;;;;;;18.72;31.76;96864.97;5147772;28;20058;-70
2022/03/26 11:14:50;;;;;;;9.40;5.75;;;;;;;18.70;31.70;96897.31;5130615;28;20197;-71
2022/03/26 11:17:37;;;;;;;8.88;4.95;;;;;;;18.76;31.78;96995.50;5148438;28;20026;-71
2022/03/26 11:20:12;;;;;;;15.27;3.85;;;;;;;18.92;31.47;97034.13;5147897;28;20027;-72
2022/03/26 11:23:20;;;;;;;5.97;3.50;;;;;;;18.99;31.51;97047.41;5147165;28;20053;-70
2022/03/26 11:26:03;;;;;;;6.10;3.05;;;;;;;19.04;31.00;97017.25;5148314;28;20107;-70
2022/03/26 11:28:38;;;;;;;4.03;1.83;;;;;;;19.03;30.95;97047.78;5148131;28;20086;-70